Terminal Aerodrome Forecast
Issued by NWS

Home | Current Version | Previous Version | Text Only | Print | Product List | Glossary On
Versions: 1 2 3 4 5 6 7 8 9 10 11 12
000
FTUS43 KIND 062300
TAFBMG
TAF
KBMG 062320Z 0700/0724 17004KT P6SM SCT250
     FM071500 19008KT P6SM SCT060 SCT250
      AMD LTD TO CLD VIS AND WIND 0701/0713=

USA.gov is the U.S. government's official web portal to all federal, state and local government web resources and services.